createdAt,value
2022-10-31T00:01:26.762Z,3.33
2022-10-31T00:03:54.202Z,3.20
2022-10-31T00:06:21.841Z,3.30
2022-10-31T00:08:53.654Z,3.47
2022-10-31T00:11:20.891Z,3.10
2022-10-31T00:13:47.940Z,3.00
2022-10-31T00:16:19.739Z,3.20
2022-10-31T00:18:50.577Z,3.38
2022-10-31T00:21:17.617Z,3.40
2022-10-31T00:23:44.761Z,3.80
2022-10-31T00:26:11.694Z,3.47
2022-10-31T00:28:38.655Z,3.22
2022-10-31T00:31:07.933Z,3.45
2022-10-31T00:33:37.655Z,3.10
2022-10-31T00:36:06.293Z,2.40
2022-10-31T00:38:33.694Z,2.70
2022-10-31T00:41:00.702Z,2.85
2022-10-31T00:43:27.549Z,3.10
2022-10-31T00:45:54.729Z,2.55
2022-10-31T00:48:25.326Z,3.30
2022-10-31T00:50:53.556Z,3.22
2022-10-31T00:53:20.459Z,2.58
2022-10-31T00:55:47.794Z,3.42
2022-10-31T01:00:57.426Z,3.00
2022-10-31T01:03:30.366Z,3.13
2022-10-31T01:06:01.597Z,2.80
2022-10-31T01:08:29.305Z,2.80
2022-10-31T01:11:26.103Z,2.92
2022-10-31T01:13:54.202Z,2.80
2022-10-31T01:16:24.387Z,2.70
2022-10-31T01:18:52.394Z,3.25
2022-10-31T01:21:25.228Z,3.13
2022-10-31T01:23:54.724Z,2.40
2022-10-31T01:26:24.321Z,3.13
2022-10-31T01:28:56.424Z,2.65
2022-10-31T01:31:26.134Z,2.97
2022-10-31T01:33:53.746Z,2.72
2022-10-31T01:36:29.786Z,3.17
2022-10-31T01:38:58.807Z,3.10
2022-10-31T01:41:31.275Z,3.22
2022-10-31T01:44:02.831Z,3.15
2022-10-31T01:46:39.966Z,2.85
2022-10-31T01:49:12.730Z,3.13
2022-10-31T01:51:46.125Z,3.53
2022-10-31T01:54:16.920Z,3.40
2022-10-31T01:56:48.360Z,2.67
2022-10-31T01:59:20.610Z,2.90
2022-10-31T02:01:48.898Z,3.00
2022-10-31T02:04:16.867Z,3.00
2022-10-31T02:06:52.136Z,3.15
2022-10-31T02:09:24.465Z,4.88
2022-10-31T02:11:54.501Z,3.80
2022-10-31T02:14:27.987Z,3.35
2022-10-31T02:16:55.629Z,3.33
2022-10-31T02:20:13.158Z,3.15
2022-10-31T02:22:51.514Z,4.03
2022-10-31T02:25:40.168Z,3.65
2022-10-31T02:28:35.998Z,3.50
2022-10-31T02:31:12.117Z,4.32
2022-10-31T02:33:51.883Z,3.40
2022-10-31T02:36:35.097Z,3.42
2022-10-31T02:39:19.753Z,3.95
2022-10-31T02:42:10.264Z,3.50
2022-10-31T02:44:45.791Z,3.33
2022-10-31T02:47:15.411Z,3.80
2022-10-31T02:49:51.734Z,3.78
2022-10-31T02:52:20.009Z,3.83
2022-10-31T02:54:48.755Z,3.88
2022-10-31T02:57:18.451Z,3.80
2022-10-31T02:59:49.998Z,4.18
2022-10-31T03:02:19.865Z,3.22
2022-10-31T03:04:52.862Z,4.38
2022-10-31T03:07:38.553Z,4.00
2022-10-31T03:10:08.421Z,3.85
2022-10-31T03:12:47.692Z,3.75
2022-10-31T03:15:45.169Z,3.30
2022-10-31T03:18:30.585Z,3.65
2022-10-31T03:21:12.946Z,3.95
2022-10-31T03:23:41.174Z,3.70
2022-10-31T03:26:10.475Z,3.50
2022-10-31T03:28:47.245Z,3.60
2022-10-31T03:31:19.399Z,3.70
2022-10-31T03:33:48.817Z,3.90
2022-10-31T03:36:17.729Z,4.20
2022-10-31T03:38:47.646Z,3.80
2022-10-31T03:41:22.472Z,4.00
2022-10-31T03:43:59.191Z,3.88
2022-10-31T03:46:26.698Z,3.80
2022-10-31T03:48:56.983Z,4.20
2022-10-31T03:51:26.734Z,3.40
2022-10-31T03:53:53.637Z,4.03
2022-10-31T03:56:35.582Z,3.90
2022-10-31T03:59:27.192Z,4.18
2022-10-31T04:02:00.630Z,3.45
2022-10-31T04:04:30.116Z,3.50
2022-10-31T04:06:59.910Z,4.00
2022-10-31T04:09:28.930Z,3.20
2022-10-31T04:11:59.373Z,3.58
2022-10-31T04:14:48.797Z,3.63
2022-10-31T04:17:19.932Z,3.60
2022-10-31T04:19:47.132Z,3.28
2022-10-31T04:22:14.481Z,3.30
2022-10-31T04:24:42.079Z,3.53
2022-10-31T04:27:12.293Z,3.00
2022-10-31T04:29:39.089Z,3.50
2022-10-31T04:32:06.026Z,3.83
2022-10-31T04:34:32.835Z,4.07
2022-10-31T04:36:59.751Z,3.20
2022-10-31T04:39:26.940Z,3.13
2022-10-31T04:42:32.227Z,3.65
2022-10-31T04:45:02.461Z,3.20
2022-10-31T04:47:35.417Z,2.97
2022-10-31T04:50:03.108Z,3.20
2022-10-31T04:52:29.979Z,3.78
2022-10-31T04:54:57.949Z,3.67
2022-10-31T04:57:45.126Z,4.07
2022-10-31T05:00:15.415Z,4.00
2022-10-31T05:02:49.945Z,3.90
2022-10-31T05:05:19.142Z,4.90
2022-10-31T05:07:48.696Z,4.80
2022-10-31T05:10:21.047Z,4.82
2022-10-31T05:12:52.213Z,5.07
2022-10-31T05:15:37.761Z,4.55
2022-10-31T05:18:24.930Z,3.83
2022-10-31T05:21:10.372Z,4.18
2022-10-31T05:23:51.045Z,3.58
2022-10-31T05:26:18.560Z,4.13
2022-10-31T05:28:45.532Z,3.97
2022-10-31T05:31:12.436Z,3.92
2022-10-31T05:33:39.358Z,3.80
2022-10-31T05:36:25.056Z,4.00
2022-10-31T05:38:58.849Z,3.85
2022-10-31T05:41:29.953Z,5.05
2022-10-31T05:44:13.060Z,5.80
2022-10-31T05:46:56.868Z,4.38
2022-10-31T05:49:42.345Z,3.80
2022-10-31T05:52:27.970Z,4.10
2022-10-31T05:55:02.030Z,5.85
2022-10-31T05:57:30.532Z,5.55
2022-10-31T05:59:57.657Z,4.63
2022-10-31T06:02:24.879Z,4.20
2022-10-31T06:05:27.656Z,3.15
2022-10-31T06:07:55.435Z,3.25
2022-10-31T06:10:24.159Z,3.40
2022-10-31T06:12:54.298Z,3.03
2022-10-31T06:15:29.013Z,3.10
2022-10-31T06:18:05.637Z,2.83
2022-10-31T06:20:42.873Z,2.67
2022-10-31T06:23:09.761Z,3.75
2022-10-31T06:25:37.111Z,3.47
2022-10-31T06:28:06.132Z,4.13
2022-10-31T06:30:51.725Z,3.20
2022-10-31T06:33:19.239Z,3.15
2022-10-31T06:35:56.247Z,3.92
2022-10-31T06:38:23.674Z,3.40
2022-10-31T06:40:50.612Z,3.30
2022-10-31T06:43:26.494Z,2.80
2022-10-31T06:46:17.214Z,3.10
2022-10-31T06:48:58.591Z,3.55
2022-10-31T06:51:41.902Z,4.25
2022-10-31T06:54:08.789Z,3.65
2022-10-31T06:56:35.804Z,3.58
2022-10-31T06:59:04.271Z,3.42
2022-10-31T07:01:51.477Z,3.45
2022-10-31T07:04:20.129Z,2.97
2022-10-31T07:06:51.738Z,2.65
2022-10-31T07:09:20.121Z,2.95
2022-10-31T07:11:48.022Z,3.08
2022-10-31T07:14:15.548Z,2.92
2022-10-31T07:16:42.583Z,2.30
2022-10-31T07:19:12.214Z,3.05
2022-10-31T07:21:39.132Z,3.05
2022-10-31T07:24:07.121Z,2.67
2022-10-31T07:26:43.415Z,2.42
2022-10-31T07:29:11.133Z,2.47
2022-10-31T07:31:38.562Z,1.95
2022-10-31T07:34:12.465Z,2.58
2022-10-31T07:36:57.914Z,2.75
2022-10-31T07:39:25.066Z,2.72
2022-10-31T07:41:52.312Z,2.40
2022-10-31T07:44:20.073Z,2.53
2022-10-31T07:47:05.557Z,2.28
2022-10-31T07:49:51.186Z,2.58
2022-10-31T07:52:36.902Z,2.95
2022-10-31T07:55:22.428Z,2.40
2022-10-31T07:57:57.757Z,2.60
2022-10-31T08:00:24.984Z,2.75
2022-10-31T08:03:19.139Z,2.90
2022-10-31T08:06:04.391Z,2.97
2022-10-31T08:08:51.286Z,2.70
2022-10-31T08:11:19.423Z,2.85
2022-10-31T08:13:48.400Z,3.40
2022-10-31T08:16:15.943Z,4.57
2022-10-31T08:18:56.568Z,3.03
2022-10-31T08:21:24.123Z,3.00
2022-10-31T08:23:51.166Z,3.00
2022-10-31T08:26:20.637Z,2.55
2022-10-31T08:28:50.824Z,2.80
2022-10-31T08:31:20.492Z,2.50
2022-10-31T08:33:47.499Z,2.78
2022-10-31T08:36:34.754Z,2.97
2022-10-31T08:39:15.169Z,2.85
2022-10-31T08:41:42.068Z,2.72
2022-10-31T08:44:12.714Z,2.20
2022-10-31T08:46:39.735Z,2.15
2022-10-31T08:49:06.923Z,2.63
2022-10-31T08:51:34.068Z,2.90
2022-10-31T08:54:01.621Z,2.20
2022-10-31T08:56:34.640Z,2.55
2022-10-31T08:59:04.332Z,2.83
2022-10-31T09:02:03.017Z,2.80
2022-10-31T09:04:30.518Z,2.45
2022-10-31T09:09:44.727Z,3.05
2022-10-31T09:12:11.711Z,2.78
2022-10-31T09:14:57.333Z,3.10
2022-10-31T09:17:30.119Z,3.28
2022-10-31T09:20:17.556Z,2.65
2022-10-31T09:22:44.788Z,2.35
2022-10-31T09:25:12.047Z,2.53
2022-10-31T09:27:40.675Z,2.53
2022-10-31T09:30:08.153Z,2.50
2022-10-31T09:32:35.624Z,2.30
2022-10-31T09:35:06.612Z,2.40
2022-10-31T09:37:33.545Z,2.50
2022-10-31T09:40:01.161Z,2.60
2022-10-31T09:43:06.648Z,2.63
2022-10-31T09:45:39.832Z,2.70
2022-10-31T09:48:42.777Z,3.08
2022-10-31T09:51:26.237Z,2.70
2022-10-31T09:54:20.963Z,2.38
2022-10-31T09:56:48.669Z,3.50
2022-10-31T09:59:29.063Z,2.50
2022-10-31T10:01:57.913Z,3.45
2022-10-31T10:04:47.791Z,2.60
2022-10-31T10:07:33.398Z,2.75
2022-10-31T10:10:32.110Z,2.55
2022-10-31T10:13:39.717Z,2.20
2022-10-31T10:16:12.532Z,2.63
2022-10-31T10:19:07.050Z,2.65
2022-10-31T10:21:48.103Z,2.35
2022-10-31T10:24:20.918Z,2.67
2022-10-31T10:27:06.295Z,2.70
2022-10-31T10:29:48.662Z,2.67
2022-10-31T10:32:23.625Z,3.03
2022-10-31T10:35:18.586Z,2.58
2022-10-31T10:37:48.096Z,2.75
2022-10-31T10:40:16.968Z,2.80
2022-10-31T10:43:21.855Z,2.33
2022-10-31T10:46:11.816Z,3.28
2022-10-31T10:48:53.915Z,2.40
2022-10-31T10:51:39.069Z,3.33
2022-10-31T10:54:39.384Z,2.17
2022-10-31T10:57:14.015Z,2.67
2022-10-31T10:59:41.058Z,3.13
2022-10-31T11:02:20.190Z,2.60
2022-10-31T11:04:52.803Z,3.35
2022-10-31T11:07:19.787Z,3.72
2022-10-31T11:09:47.685Z,2.85
2022-10-31T11:12:34.922Z,2.30
2022-10-31T11:15:09.001Z,2.78
2022-10-31T11:17:40.290Z,3.45
2022-10-31T11:20:16.349Z,2.85
2022-10-31T11:22:47.773Z,2.60
2022-10-31T11:25:20.736Z,2.63
2022-10-31T11:27:48.092Z,3.03
2022-10-31T11:30:15.789Z,3.35
2022-10-31T11:32:53.403Z,2.78
2022-10-31T11:35:22.541Z,3.03
2022-10-31T11:37:52.046Z,2.53
2022-10-31T11:40:22.001Z,2.70
2022-10-31T11:42:50.871Z,2.28
2022-10-31T11:45:34.637Z,2.22
2022-10-31T11:48:04.169Z,2.60
2022-10-31T11:50:42.898Z,2.42
2022-10-31T11:53:18.056Z,2.88
2022-10-31T11:55:47.446Z,3.10
2022-10-31T11:58:25.921Z,3.30
2022-10-31T12:00:57.920Z,3.25
2022-10-31T12:03:24.734Z,3.38
2022-10-31T12:06:10.001Z,3.30
2022-10-31T12:08:38.309Z,3.33
2022-10-31T12:11:31.851Z,3.35
2022-10-31T12:14:03.705Z,3.20
2022-10-31T12:16:48.081Z,3.63
2022-10-31T12:19:33.129Z,3.03
2022-10-31T12:22:23.771Z,3.13
2022-10-31T12:25:16.582Z,3.22
2022-10-31T12:28:00.996Z,2.58
2022-10-31T12:30:41.135Z,2.88
2022-10-31T12:33:34.057Z,3.10
2022-10-31T12:36:19.197Z,2.88
2022-10-31T12:39:11.154Z,3.50
2022-10-31T12:41:49.384Z,3.33
2022-10-31T12:44:46.569Z,2.72
2022-10-31T12:47:45.831Z,2.53
2022-10-31T12:50:36.060Z,2.45
2022-10-31T12:56:01.365Z,2.67
2022-10-31T12:58:42.191Z,3.08
2022-10-31T13:01:15.763Z,2.65
2022-10-31T13:04:06.350Z,2.50
2022-10-31T13:06:44.653Z,3.03
2022-10-31T13:09:18.202Z,2.47
2022-10-31T13:11:49.703Z,2.95
2022-10-31T13:14:45.786Z,2.97
2022-10-31T13:17:31.918Z,2.80
2022-10-31T13:20:16.299Z,2.67
2022-10-31T13:22:47.491Z,2.50
2022-10-31T13:25:39.088Z,2.33
2022-10-31T13:28:24.768Z,3.08
2022-10-31T13:30:53.886Z,2.40
2022-10-31T13:33:34.063Z,2.72
2022-10-31T13:36:07.122Z,2.22
2022-10-31T13:38:49.823Z,2.08
2022-10-31T13:41:25.596Z,2.67
2022-10-31T13:43:52.435Z,2.47
2022-10-31T13:46:34.781Z,2.20
2022-10-31T13:49:01.827Z,2.13
2022-10-31T13:51:35.103Z,2.13
2022-10-31T13:54:20.085Z,2.05
2022-10-31T13:56:51.309Z,2.05
2022-10-31T13:59:23.017Z,2.08
2022-10-31T14:01:56.022Z,1.58
2022-10-31T14:04:31.005Z,1.90
2022-10-31T14:06:59.477Z,1.60
2022-10-31T14:09:32.918Z,1.88
2022-10-31T14:12:03.994Z,2.03
2022-10-31T14:14:36.372Z,2.22
2022-10-31T14:17:04.130Z,1.40
2022-10-31T14:19:31.133Z,2.30
2022-10-31T14:21:58.045Z,1.90
2022-10-31T14:24:24.944Z,1.95
2022-10-31T14:27:20.928Z,1.73
2022-10-31T14:29:50.654Z,1.88
2022-10-31T14:32:19.194Z,2.50
2022-10-31T14:34:55.872Z,7.57
2022-10-31T14:38:08.020Z,4.97
2022-10-31T14:40:47.446Z,1.83
2022-10-31T14:43:39.809Z,1.88
2022-10-31T14:46:18.278Z,1.85
2022-10-31T14:48:54.248Z,2.25
2022-10-31T14:51:23.641Z,2.58
2022-10-31T14:53:55.070Z,2.53
2022-10-31T14:56:28.946Z,2.97
2022-10-31T14:59:01.114Z,2.50
2022-10-31T15:01:35.917Z,2.40
2022-10-31T15:04:28.940Z,2.47
2022-10-31T15:07:06.803Z,2.70
2022-10-31T15:09:38.744Z,2.60
2022-10-31T15:12:25.720Z,2.42
2022-10-31T15:14:53.312Z,2.45
2022-10-31T15:17:21.781Z,2.60
2022-10-31T15:19:49.112Z,4.57
2022-10-31T15:22:18.638Z,6.07
2022-10-31T15:24:46.106Z,6.13
2022-10-31T15:27:18.573Z,8.40
2022-10-31T15:29:56.575Z,3.47
2022-10-31T15:32:25.127Z,4.50
2022-10-31T15:34:53.682Z,6.32
2022-10-31T15:37:22.844Z,3.92
2022-10-31T15:39:50.660Z,3.83
2022-10-31T15:42:20.728Z,3.97
2022-10-31T15:44:54.247Z,4.10
2022-10-31T15:47:25.308Z,3.50
2022-10-31T15:49:57.116Z,3.65
2022-10-31T15:52:48.600Z,3.28
2022-10-31T15:55:17.285Z,3.63
2022-10-31T15:57:47.052Z,3.42
2022-10-31T16:00:24.868Z,3.95
2022-10-31T16:03:06.743Z,4.00
2022-10-31T16:05:40.498Z,3.75
2022-10-31T16:08:32.170Z,3.47
2022-10-31T16:11:00.429Z,3.55
2022-10-31T16:13:29.610Z,4.28
2022-10-31T16:16:28.909Z,4.10
2022-10-31T16:18:49.122Z,4.72
2022-10-31T16:21:16.048Z,6.35
2022-10-31T16:23:48.792Z,14.52
2022-10-31T16:26:19.411Z,14.25
2022-10-31T16:29:03.421Z,15.55
2022-10-31T16:31:39.303Z,18.75
2022-10-31T16:34:11.593Z,14.20
2022-10-31T16:36:40.192Z,9.10
2022-10-31T16:39:07.931Z,9.63
2022-10-31T16:41:40.978Z,12.60
2022-10-31T16:44:16.109Z,17.20
2022-10-31T16:46:43.411Z,15.65
2022-10-31T16:49:11.209Z,16.33
2022-10-31T16:51:38.358Z,15.27
2022-10-31T16:54:05.411Z,14.55
2022-10-31T16:56:34.698Z,12.10
2022-10-31T16:59:04.941Z,10.40
2022-10-31T17:01:32.465Z,9.25
2022-10-31T17:03:59.453Z,9.25
2022-10-31T17:06:28.504Z,7.82
2022-10-31T17:08:55.640Z,7.03
2022-10-31T17:11:25.978Z,6.57
2022-10-31T17:13:54.494Z,7.13
2022-10-31T17:16:21.438Z,8.55
2022-10-31T17:18:48.484Z,9.57
2022-10-31T17:21:23.448Z,20.13
2022-10-31T17:23:51.159Z,10.30
2022-10-31T17:26:18.977Z,9.32
2022-10-31T17:28:46.327Z,18.92
2022-10-31T17:31:27.120Z,19.70
2022-10-31T17:34:01.811Z,14.55
2022-10-31T17:36:31.064Z,12.68
2022-10-31T17:38:58.136Z,12.10
2022-10-31T17:41:25.053Z,11.98
2022-10-31T17:43:58.925Z,10.80
2022-10-31T17:46:27.023Z,9.93
2022-10-31T17:48:53.917Z,12.60
2022-10-31T17:51:20.777Z,9.80
2022-10-31T17:53:48.053Z,9.52
2022-10-31T17:56:14.870Z,10.25
2022-10-31T17:58:41.801Z,11.43
2022-10-31T18:01:13.836Z,6.93
2022-10-31T18:03:41.244Z,8.32
2022-10-31T18:06:08.815Z,7.38
2022-10-31T18:08:38.160Z,6.85
2022-10-31T18:11:10.998Z,5.90
2022-10-31T18:13:38.737Z,6.50
2022-10-31T18:16:10.411Z,6.68
2022-10-31T18:18:37.245Z,6.28
2022-10-31T18:21:04.536Z,6.43
2022-10-31T18:23:31.542Z,6.10
2022-10-31T18:25:58.482Z,6.75
2022-10-31T18:28:25.576Z,7.32
2022-10-31T18:30:52.439Z,6.95
2022-10-31T18:33:19.655Z,7.45
2022-10-31T18:35:46.530Z,7.60
2022-10-31T18:38:13.472Z,6.30
2022-10-31T18:40:40.330Z,6.50
2022-10-31T18:43:07.363Z,6.90
2022-10-31T18:45:46.508Z,6.57
2022-10-31T18:48:15.621Z,6.35
2022-10-31T18:50:43.073Z,6.18
2022-10-31T18:53:10.041Z,6.68
2022-10-31T18:55:47.276Z,6.65
2022-10-31T18:58:16.470Z,6.30
2022-10-31T19:00:43.378Z,9.20
2022-10-31T19:03:10.203Z,7.93
2022-10-31T19:05:37.048Z,7.25
2022-10-31T19:08:04.372Z,8.98
2022-10-31T19:10:31.333Z,8.48
2022-10-31T19:12:58.250Z,11.15
2022-10-31T19:15:26.089Z,11.60
2022-10-31T19:17:52.930Z,7.68
2022-10-31T19:20:19.843Z,7.68
2022-10-31T19:22:46.780Z,7.70
2022-10-31T19:25:13.752Z,11.40
2022-10-31T19:27:40.619Z,9.82
2022-10-31T19:30:08.166Z,8.07
2022-10-31T19:32:35.082Z,9.20
2022-10-31T19:35:02.864Z,8.18
2022-10-31T19:37:29.715Z,6.60
2022-10-31T19:39:56.529Z,7.90
2022-10-31T19:42:24.366Z,7.18
2022-10-31T19:44:51.161Z,7.38
2022-10-31T19:47:18.151Z,11.07
2022-10-31T19:49:45.008Z,11.63
2022-10-31T19:52:12.038Z,10.15
2022-10-31T19:54:38.856Z,8.02
2022-10-31T19:57:05.748Z,9.18
2022-10-31T19:59:36.699Z,8.40
2022-10-31T20:02:06.567Z,7.93
2022-10-31T20:04:33.569Z,8.60
2022-10-31T20:07:00.527Z,8.50
2022-10-31T20:09:27.424Z,8.32
2022-10-31T20:11:54.258Z,10.90
2022-10-31T20:14:21.063Z,8.73
2022-10-31T20:16:47.979Z,8.73
2022-10-31T20:19:14.805Z,9.30
2022-10-31T20:21:42.035Z,9.23
2022-10-31T20:24:10.834Z,9.23
2022-10-31T20:26:40.831Z,8.85
2022-10-31T20:29:10.062Z,8.30
2022-10-31T20:31:37.367Z,9.27
2022-10-31T20:34:04.285Z,8.90
2022-10-31T20:36:31.255Z,8.60
2022-10-31T20:38:58.882Z,8.45
2022-10-31T20:41:26.048Z,8.88
2022-10-31T20:43:52.974Z,8.95
2022-10-31T20:46:23.507Z,9.10
2022-10-31T20:48:51.327Z,9.45
2022-10-31T20:51:21.473Z,9.75
2022-10-31T20:53:52.937Z,10.00
2022-10-31T20:56:22.198Z,10.90
2022-10-31T20:58:49.489Z,10.65
2022-10-31T21:01:28.895Z,11.40
2022-10-31T21:03:56.132Z,11.02
2022-10-31T21:06:23.549Z,10.93
2022-10-31T21:08:51.366Z,10.88
2022-10-31T21:11:20.348Z,10.88
2022-10-31T21:13:48.630Z,11.40
2022-10-31T21:16:20.990Z,10.45
2022-10-31T21:18:49.646Z,10.70
2022-10-31T21:21:32.093Z,10.75
2022-10-31T21:24:20.944Z,10.80
2022-10-31T21:26:51.208Z,11.07
2022-10-31T21:29:20.036Z,11.43
2022-10-31T21:31:47.899Z,10.52
2022-10-31T21:34:15.169Z,10.73
2022-10-31T21:36:42.111Z,10.25
2022-10-31T21:39:09.934Z,11.55
2022-10-31T21:41:36.869Z,11.35
2022-10-31T21:44:04.476Z,10.68
2022-10-31T21:46:33.099Z,9.98
2022-10-31T21:49:02.535Z,10.27
2022-10-31T21:51:32.245Z,9.95
2022-10-31T21:54:18.286Z,10.60
2022-10-31T21:56:45.764Z,8.82
2022-10-31T21:59:13.252Z,8.88
2022-10-31T22:01:40.974Z,8.15
2022-10-31T22:04:08.488Z,8.45
2022-10-31T22:06:36.184Z,8.70
2022-10-31T22:09:04.983Z,9.32
2022-10-31T22:11:32.130Z,8.73
2022-10-31T22:14:00.488Z,9.10
2022-10-31T22:16:29.655Z,9.38
2022-10-31T22:18:58.813Z,9.93
2022-10-31T22:21:27.577Z,8.98
2022-10-31T22:24:01.987Z,8.38
2022-10-31T22:26:32.639Z,9.82
2022-10-31T22:29:00.742Z,9.50
2022-10-31T22:31:29.302Z,10.32
2022-10-31T22:33:56.740Z,9.60
2022-10-31T22:36:26.774Z,9.77
2022-10-31T22:38:54.264Z,9.65
2022-10-31T22:41:24.058Z,10.52
2022-10-31T22:43:51.378Z,10.32
2022-10-31T22:46:27.167Z,10.70
2022-10-31T22:49:00.291Z,11.13
2022-10-31T22:51:32.604Z,9.98
2022-10-31T22:53:59.760Z,10.45
2022-10-31T22:56:34.094Z,10.70
2022-10-31T22:59:01.918Z,10.60
2022-10-31T23:01:32.134Z,10.80
2022-10-31T23:04:00.440Z,11.35
2022-10-31T23:06:30.371Z,10.60
2022-10-31T23:08:59.007Z,10.80
2022-10-31T23:11:34.931Z,11.27
2022-10-31T23:14:09.747Z,11.05
2022-10-31T23:16:41.487Z,11.65
2022-10-31T23:19:10.042Z,11.88
2022-10-31T23:22:09.109Z,11.52
2022-10-31T23:24:44.687Z,11.23
2022-10-31T23:27:11.669Z,11.68
2022-10-31T23:29:48.192Z,11.45
2022-10-31T23:32:20.892Z,11.45
2022-10-31T23:35:01.445Z,11.55
2022-10-31T23:37:31.138Z,11.15
2022-10-31T23:39:58.599Z,12.13
2022-10-31T23:42:26.526Z,12.57
2022-10-31T23:44:53.501Z,13.52
2022-10-31T23:47:21.171Z,12.93
2022-10-31T23:49:48.529Z,13.25
2022-10-31T23:52:16.034Z,11.65
2022-10-31T23:54:43.051Z,11.95
2022-10-31T23:57:12.156Z,11.77
2022-10-31T23:59:39.221Z,11.70
